sensor_id;sensor_type;location;lat;lon;timestamp;temperature;humidity
16273;DHT22;8244;50.044;9.006;2023-11-18T00:05:00;3.50;99.90
16273;DHT22;8244;50.044;9.006;2023-11-18T00:10:02;3.50;99.90
16273;DHT22;8244;50.044;9.006;2023-11-18T00:15:06;3.50;99.90
16273;DHT22;8244;50.044;9.006;2023-11-18T00:20:10;3.50;99.90
16273;DHT22;8244;50.044;9.006;2023-11-18T00:25:14;3.60;99.90
16273;DHT22;8244;50.044;9.006;2023-11-18T00:30:17;3.60;99.90
16273;DHT22;8244;50.044;9.006;2023-11-18T00:35:19;3.70;99.90
16273;DHT22;8244;50.044;9.006;2023-11-18T00:40:20;3.80;99.90
16273;DHT22;8244;50.044;9.006;2023-11-18T00:45:23;3.90;99.90
16273;DHT22;8244;50.044;9.006;2023-11-18T00:50:25;3.90;99.90
16273;DHT22;8244;50.044;9.006;2023-11-18T00:55:27;4.00;99.90
16273;DHT22;8244;50.044;9.006;2023-11-18T01:00:30;4.10;99.90
16273;DHT22;8244;50.044;9.006;2023-11-18T01:05:32;4.10;99.90
16273;DHT22;8244;50.044;9.006;2023-11-18T01:10:33;4.20;99.90
16273;DHT22;8244;50.044;9.006;2023-11-18T01:15:36;4.20;99.90
16273;DHT22;8244;50.044;9.006;2023-11-18T01:20:38;4.20;99.90
16273;DHT22;8244;50.044;9.006;2023-11-18T01:25:39;4.20;99.90
16273;DHT22;8244;50.044;9.006;2023-11-18T01:30:43;4.20;99.90
16273;DHT22;8244;50.044;9.006;2023-11-18T01:35:45;4.30;99.90
16273;DHT22;8244;50.044;9.006;2023-11-18T01:40:47;4.40;99.90
16273;DHT22;8244;50.044;9.006;2023-11-18T01:45:50;4.50;99.90
16273;DHT22;8244;50.044;9.006;2023-11-18T01:50:54;4.50;99.90
16273;DHT22;8244;50.044;9.006;2023-11-18T01:55:58;4.50;99.90
16273;DHT22;8244;50.044;9.006;2023-11-18T02:01:02;4.60;99.90
16273;DHT22;8244;50.044;9.006;2023-11-18T02:06:08;4.60;99.90
16273;DHT22;8244;50.044;9.006;2023-11-18T02:11:17;4.60;99.90
16273;DHT22;8244;50.044;9.006;2023-11-18T02:16:23;4.60;99.90
16273;DHT22;8244;50.044;9.006;2023-11-18T02:21:29;4.70;99.90
16273;DHT22;8244;50.044;9.006;2023-11-18T02:26:35;4.70;99.90
16273;DHT22;8244;50.044;9.006;2023-11-18T02:31:37;4.70;99.90
16273;DHT22;8244;50.044;9.006;2023-11-18T02:36:43;4.70;99.90
16273;DHT22;8244;50.044;9.006;2023-11-18T02:41:50;4.80;99.90
16273;DHT22;8244;50.044;9.006;2023-11-18T02:46:53;4.90;99.90
16273;DHT22;8244;50.044;9.006;2023-11-18T02:51:54;4.80;99.90
16273;DHT22;8244;50.044;9.006;2023-11-18T02:56:57;4.80;99.90
16273;DHT22;8244;50.044;9.006;2023-11-18T03:02:00;4.70;99.90
16273;DHT22;8244;50.044;9.006;2023-11-18T03:07:02;4.50;99.90
16273;DHT22;8244;50.044;9.006;2023-11-18T03:12:05;4.40;99.90
16273;DHT22;8244;50.044;9.006;2023-11-18T03:17:08;4.30;99.90
16273;DHT22;8244;50.044;9.006;2023-11-18T03:22:10;4.10;99.90
16273;DHT22;8244;50.044;9.006;2023-11-18T03:27:14;4.00;99.90
16273;DHT22;8244;50.044;9.006;2023-11-18T03:32:16;4.10;99.90
16273;DHT22;8244;50.044;9.006;2023-11-18T03:37:18;4.10;99.90
16273;DHT22;8244;50.044;9.006;2023-11-18T03:42:21;4.10;99.90
16273;DHT22;8244;50.044;9.006;2023-11-18T03:47:22;4.10;99.90
16273;DHT22;8244;50.044;9.006;2023-11-18T03:52:24;4.10;99.90
16273;DHT22;8244;50.044;9.006;2023-11-18T03:57:29;4.20;99.90
16273;DHT22;8244;50.044;9.006;2023-11-18T04:02:31;4.20;99.90
16273;DHT22;8244;50.044;9.006;2023-11-18T04:07:34;4.30;99.90
16273;DHT22;8244;50.044;9.006;2023-11-18T04:12:37;4.40;99.90
16273;DHT22;8244;50.044;9.006;2023-11-18T04:17:39;4.40;99.90
16273;DHT22;8244;50.044;9.006;2023-11-18T04:22:41;4.50;99.90
16273;DHT22;8244;50.044;9.006;2023-11-18T04:27:44;4.60;99.90
16273;DHT22;8244;50.044;9.006;2023-11-18T04:32:46;4.70;99.90
16273;DHT22;8244;50.044;9.006;2023-11-18T04:37:48;4.70;99.90
16273;DHT22;8244;50.044;9.006;2023-11-18T04:42:51;4.80;99.90
16273;DHT22;8244;50.044;9.006;2023-11-18T04:47:52;4.80;99.90
16273;DHT22;8244;50.044;9.006;2023-11-18T04:52:55;4.80;99.90
16273;DHT22;8244;50.044;9.006;2023-11-18T04:57:58;4.80;99.90
16273;DHT22;8244;50.044;9.006;2023-11-18T05:02:59;4.80;99.90
16273;DHT22;8244;50.044;9.006;2023-11-18T05:08:01;4.90;99.90
16273;DHT22;8244;50.044;9.006;2023-11-18T05:13:04;4.90;99.90
16273;DHT22;8244;50.044;9.006;2023-11-18T05:18:07;4.80;99.90
16273;DHT22;8244;50.044;9.006;2023-11-18T05:23:12;4.60;99.90
16273;DHT22;8244;50.044;9.006;2023-11-18T05:28:15;4.40;99.90
16273;DHT22;8244;50.044;9.006;2023-11-18T05:33:17;4.30;99.90
16273;DHT22;8244;50.044;9.006;2023-11-18T05:38:19;4.30;99.90
16273;DHT22;8244;50.044;9.006;2023-11-18T05:43:24;4.30;99.90
16273;DHT22;8244;50.044;9.006;2023-11-18T05:48:26;4.30;99.90
16273;DHT22;8244;50.044;9.006;2023-11-18T05:53:28;4.30;99.90
16273;DHT22;8244;50.044;9.006;2023-11-18T05:58:31;4.40;99.90
16273;DHT22;8244;50.044;9.006;2023-11-18T06:03:33;4.40;99.90
16273;DHT22;8244;50.044;9.006;2023-11-18T06:08:36;4.40;99.90
16273;DHT22;8244;50.044;9.006;2023-11-18T06:13:41;4.40;99.90
16273;DHT22;8244;50.044;9.006;2023-11-18T06:18:44;4.50;99.90
16273;DHT22;8244;50.044;9.006;2023-11-18T06:23:47;4.50;99.90
16273;DHT22;8244;50.044;9.006;2023-11-18T06:28:50;4.60;99.90
16273;DHT22;8244;50.044;9.006;2023-11-18T06:33:52;4.60;99.90
16273;DHT22;8244;50.044;9.006;2023-11-18T06:38:54;4.70;99.90
16273;DHT22;8244;50.044;9.006;2023-11-18T06:43:58;4.80;99.90
16273;DHT22;8244;50.044;9.006;2023-11-18T06:49:01;4.90;99.90
16273;DHT22;8244;50.044;9.006;2023-11-18T06:54:05;4.90;99.90
16273;DHT22;8244;50.044;9.006;2023-11-18T06:59:12;5.00;99.90
16273;DHT22;8244;50.044;9.006;2023-11-18T07:04:14;5.10;99.90
16273;DHT22;8244;50.044;9.006;2023-11-18T07:09:16;5.20;99.90
16273;DHT22;8244;50.044;9.006;2023-11-18T07:14:19;5.20;99.90
16273;DHT22;8244;50.044;9.006;2023-11-18T07:19:21;5.20;99.90
16273;DHT22;8244;50.044;9.006;2023-11-18T07:24:23;5.30;99.90
16273;DHT22;8244;50.044;9.006;2023-11-18T07:29:26;5.30;99.90
16273;DHT22;8244;50.044;9.006;2023-11-18T07:34:28;5.30;99.90
16273;DHT22;8244;50.044;9.006;2023-11-18T07:39:33;5.30;99.90
16273;DHT22;8244;50.044;9.006;2023-11-18T07:44:46;5.40;99.90
16273;DHT22;8244;50.044;9.006;2023-11-18T07:49:48;5.50;99.90
16273;DHT22;8244;50.044;9.006;2023-11-18T07:54:49;5.50;99.90
16273;DHT22;8244;50.044;9.006;2023-11-18T07:59:54;5.50;99.90
16273;DHT22;8244;50.044;9.006;2023-11-18T08:04:56;5.50;99.90
16273;DHT22;8244;50.044;9.006;2023-11-18T08:09:58;5.50;99.90
16273;DHT22;8244;50.044;9.006;2023-11-18T08:15:01;5.60;99.90
16273;DHT22;8244;50.044;9.006;2023-11-18T08:20:04;5.60;99.90
16273;DHT22;8244;50.044;9.006;2023-11-18T08:25:09;5.60;99.90
16273;DHT22;8244;50.044;9.006;2023-11-18T08:30:12;5.70;99.90
16273;DHT22;8244;50.044;9.006;2023-11-18T08:35:15;5.80;99.90
16273;DHT22;8244;50.044;9.006;2023-11-18T08:40:18;5.80;99.90
16273;DHT22;8244;50.044;9.006;2023-11-18T08:45:24;5.90;99.90
16273;DHT22;8244;50.044;9.006;2023-11-18T08:50:28;6.00;99.90
16273;DHT22;8244;50.044;9.006;2023-11-18T08:55:32;6.10;99.90
16273;DHT22;8244;50.044;9.006;2023-11-18T09:00:42;6.10;99.90
16273;DHT22;8244;50.044;9.006;2023-11-18T09:05:47;6.20;99.90
16273;DHT22;8244;50.044;9.006;2023-11-18T09:10:57;6.30;99.90
16273;DHT22;8244;50.044;9.006;2023-11-18T09:16:01;6.50;99.90
16273;DHT22;8244;50.044;9.006;2023-11-18T09:21:04;6.60;99.90
16273;DHT22;8244;50.044;9.006;2023-11-18T09:26:07;6.80;99.90
16273;DHT22;8244;50.044;9.006;2023-11-18T09:31:10;6.90;99.90
16273;DHT22;8244;50.044;9.006;2023-11-18T09:36:12;7.20;99.90
16273;DHT22;8244;50.044;9.006;2023-11-18T09:41:15;7.40;99.90
16273;DHT22;8244;50.044;9.006;2023-11-18T09:46:22;7.60;99.90
16273;DHT22;8244;50.044;9.006;2023-11-18T09:51:26;7.70;99.90
16273;DHT22;8244;50.044;9.006;2023-11-18T09:56:31;7.80;99.90
16273;DHT22;8244;50.044;9.006;2023-11-18T10:01:42;8.00;99.90
16273;DHT22;8244;50.044;9.006;2023-11-18T10:06:44;8.20;99.90
16273;DHT22;8244;50.044;9.006;2023-11-18T10:11:47;8.30;99.90
16273;DHT22;8244;50.044;9.006;2023-11-18T10:16:50;8.40;99.90
16273;DHT22;8244;50.044;9.006;2023-11-18T10:21:54;8.50;99.90
16273;DHT22;8244;50.044;9.006;2023-11-18T10:26:57;8.60;99.90
16273;DHT22;8244;50.044;9.006;2023-11-18T10:32:06;8.70;99.90
16273;DHT22;8244;50.044;9.006;2023-11-18T10:37:16;8.80;99.90
16273;DHT22;8244;50.044;9.006;2023-11-18T10:42:18;8.90;99.90
16273;DHT22;8244;50.044;9.006;2023-11-18T10:47:21;9.10;99.90
16273;DHT22;8244;50.044;9.006;2023-11-18T10:52:24;9.10;99.90
16273;DHT22;8244;50.044;9.006;2023-11-18T10:57:31;9.10;99.90
16273;DHT22;8244;50.044;9.006;2023-11-18T11:02:35;9.20;99.90
16273;DHT22;8244;50.044;9.006;2023-11-18T11:07:40;9.30;99.90
16273;DHT22;8244;50.044;9.006;2023-11-18T11:12:43;9.40;99.90
16273;DHT22;8244;50.044;9.006;2023-11-18T11:17:54;9.40;99.90
16273;DHT22;8244;50.044;9.006;2023-11-18T11:23:08;9.40;99.90
16273;DHT22;8244;50.044;9.006;2023-11-18T11:28:19;9.50;99.90
16273;DHT22;8244;50.044;9.006;2023-11-18T11:33:29;9.50;99.90
16273;DHT22;8244;50.044;9.006;2023-11-18T11:38:40;9.50;99.90
16273;DHT22;8244;50.044;9.006;2023-11-18T11:43:47;9.50;99.90
16273;DHT22;8244;50.044;9.006;2023-11-18T11:48:51;9.50;99.90
16273;DHT22;8244;50.044;9.006;2023-11-18T11:54:00;9.50;99.90
16273;DHT22;8244;50.044;9.006;2023-11-18T11:59:05;9.50;99.90
16273;DHT22;8244;50.044;9.006;2023-11-18T12:04:15;9.60;99.90
16273;DHT22;8244;50.044;9.006;2023-11-18T12:09:22;9.60;99.90
16273;DHT22;8244;50.044;9.006;2023-11-18T12:14:24;9.60;99.90
16273;DHT22;8244;50.044;9.006;2023-11-18T12:19:42;9.60;99.90
16273;DHT22;8244;50.044;9.006;2023-11-18T12:30:41;9.60;99.90
16273;DHT22;8244;50.044;9.006;2023-11-18T12:41:34;9.60;99.90
16273;DHT22;8244;50.044;9.006;2023-11-18T12:46:51;9.50;99.90
16273;DHT22;8244;50.044;9.006;2023-11-18T12:51:55;9.50;99.90
16273;DHT22;8244;50.044;9.006;2023-11-18T12:57:00;9.50;99.90
16273;DHT22;8244;50.044;9.006;2023-11-18T13:02:02;9.50;99.90
16273;DHT22;8244;50.044;9.006;2023-11-18T13:07:05;9.40;99.90
16273;DHT22;8244;50.044;9.006;2023-11-18T13:12:10;9.40;99.90
16273;DHT22;8244;50.044;9.006;2023-11-18T13:17:16;9.40;99.90
16273;DHT22;8244;50.044;9.006;2023-11-18T13:22:18;9.30;99.90
16273;DHT22;8244;50.044;9.006;2023-11-18T13:27:21;9.30;99.90
16273;DHT22;8244;50.044;9.006;2023-11-18T13:32:23;9.20;99.90
16273;DHT22;8244;50.044;9.006;2023-11-18T13:37:27;9.20;99.90
16273;DHT22;8244;50.044;9.006;2023-11-18T13:42:30;9.20;99.90
16273;DHT22;8244;50.044;9.006;2023-11-18T13:47:33;9.10;99.90
16273;DHT22;8244;50.044;9.006;2023-11-18T13:52:37;9.00;99.90
16273;DHT22;8244;50.044;9.006;2023-11-18T13:57:40;9.00;99.90
16273;DHT22;8244;50.044;9.006;2023-11-18T14:02:42;9.00;99.90
16273;DHT22;8244;50.044;9.006;2023-11-18T14:07:46;8.90;99.90
16273;DHT22;8244;50.044;9.006;2023-11-18T14:13:03;8.80;99.90
16273;DHT22;8244;50.044;9.006;2023-11-18T14:18:06;8.70;99.90
16273;DHT22;8244;50.044;9.006;2023-11-18T14:23:09;8.70;99.90
16273;DHT22;8244;50.044;9.006;2023-11-18T14:28:13;8.70;99.90
16273;DHT22;8244;50.044;9.006;2023-11-18T14:33:14;8.60;99.90
16273;DHT22;8244;50.044;9.006;2023-11-18T14:38:16;8.60;99.90
16273;DHT22;8244;50.044;9.006;2023-11-18T14:43:20;8.60;99.90
16273;DHT22;8244;50.044;9.006;2023-11-18T14:48:22;8.50;99.90
16273;DHT22;8244;50.044;9.006;2023-11-18T14:53:23;8.50;99.90
16273;DHT22;8244;50.044;9.006;2023-11-18T14:58:27;8.40;99.90
16273;DHT22;8244;50.044;9.006;2023-11-18T15:03:28;8.30;99.90
16273;DHT22;8244;50.044;9.006;2023-11-18T15:08:32;8.30;99.90
16273;DHT22;8244;50.044;9.006;2023-11-18T15:13:36;8.20;99.90
16273;DHT22;8244;50.044;9.006;2023-11-18T15:18:40;8.20;99.90
16273;DHT22;8244;50.044;9.006;2023-11-18T15:23:41;8.10;99.90
16273;DHT22;8244;50.044;9.006;2023-11-18T15:28:44;8.10;99.90
16273;DHT22;8244;50.044;9.006;2023-11-18T15:33:46;8.00;99.90
16273;DHT22;8244;50.044;9.006;2023-11-18T15:38:48;8.00;99.90
16273;DHT22;8244;50.044;9.006;2023-11-18T15:43:51;8.00;99.90
16273;DHT22;8244;50.044;9.006;2023-11-18T15:48:53;7.90;99.90
16273;DHT22;8244;50.044;9.006;2023-11-18T15:53:56;7.90;99.90
16273;DHT22;8244;50.044;9.006;2023-11-18T15:58:59;7.90;99.90
16273;DHT22;8244;50.044;9.006;2023-11-18T16:04:00;7.80;99.90
16273;DHT22;8244;50.044;9.006;2023-11-18T16:09:03;7.80;99.90
16273;DHT22;8244;50.044;9.006;2023-11-18T16:14:08;7.70;99.90
16273;DHT22;8244;50.044;9.006;2023-11-18T16:19:10;7.70;99.90
16273;DHT22;8244;50.044;9.006;2023-11-18T16:24:11;7.70;99.90
16273;DHT22;8244;50.044;9.006;2023-11-18T16:29:16;7.70;99.90
16273;DHT22;8244;50.044;9.006;2023-11-18T16:34:18;7.70;99.90
16273;DHT22;8244;50.044;9.006;2023-11-18T16:39:20;7.60;99.90
16273;DHT22;8244;50.044;9.006;2023-11-18T16:44:23;7.60;99.90
16273;DHT22;8244;50.044;9.006;2023-11-18T16:49:25;7.60;99.90
16273;DHT22;8244;50.044;9.006;2023-11-18T16:54:26;7.60;99.90
16273;DHT22;8244;50.044;9.006;2023-11-18T16:59:30;7.60;99.90
16273;DHT22;8244;50.044;9.006;2023-11-18T17:04:32;7.50;99.90
16273;DHT22;8244;50.044;9.006;2023-11-18T17:09:33;7.50;99.90
16273;DHT22;8244;50.044;9.006;2023-11-18T17:14:36;7.50;99.90
16273;DHT22;8244;50.044;9.006;2023-11-18T17:19:38;7.50;99.90
16273;DHT22;8244;50.044;9.006;2023-11-18T17:24:40;7.40;99.90
16273;DHT22;8244;50.044;9.006;2023-11-18T17:29:43;7.40;99.90
16273;DHT22;8244;50.044;9.006;2023-11-18T17:34:45;7.40;99.90
16273;DHT22;8244;50.044;9.006;2023-11-18T17:39:46;7.40;99.90
16273;DHT22;8244;50.044;9.006;2023-11-18T17:44:49;7.40;99.90
16273;DHT22;8244;50.044;9.006;2023-11-18T17:49:51;7.30;99.90
16273;DHT22;8244;50.044;9.006;2023-11-18T17:54:52;7.30;99.90
16273;DHT22;8244;50.044;9.006;2023-11-18T17:59:56;7.30;99.90
16273;DHT22;8244;50.044;9.006;2023-11-18T18:04:58;7.30;99.90
16273;DHT22;8244;50.044;9.006;2023-11-18T18:09:59;7.30;99.90
16273;DHT22;8244;50.044;9.006;2023-11-18T18:15:03;7.30;99.90
16273;DHT22;8244;50.044;9.006;2023-11-18T18:20:08;7.30;99.90
16273;DHT22;8244;50.044;9.006;2023-11-18T18:25:10;7.30;99.90
16273;DHT22;8244;50.044;9.006;2023-11-18T18:30:14;7.30;99.90
16273;DHT22;8244;50.044;9.006;2023-11-18T18:35:16;7.30;99.90
16273;DHT22;8244;50.044;9.006;2023-11-18T18:40:19;7.30;99.90
16273;DHT22;8244;50.044;9.006;2023-11-18T18:45:24;7.30;99.90
16273;DHT22;8244;50.044;9.006;2023-11-18T18:50:27;7.20;99.90
16273;DHT22;8244;50.044;9.006;2023-11-18T18:55:34;7.20;99.90
16273;DHT22;8244;50.044;9.006;2023-11-18T19:00:38;7.20;99.90
16273;DHT22;8244;50.044;9.006;2023-11-18T19:05:40;7.20;99.90
16273;DHT22;8244;50.044;9.006;2023-11-18T19:10:42;7.20;99.90
16273;DHT22;8244;50.044;9.006;2023-11-18T19:15:45;7.20;99.90
16273;DHT22;8244;50.044;9.006;2023-11-18T19:20:47;7.20;99.90
16273;DHT22;8244;50.044;9.006;2023-11-18T19:25:48;7.20;99.90
16273;DHT22;8244;50.044;9.006;2023-11-18T19:30:51;7.20;99.90
16273;DHT22;8244;50.044;9.006;2023-11-18T19:35:53;7.30;99.90
16273;DHT22;8244;50.044;9.006;2023-11-18T19:40:55;7.30;99.90
16273;DHT22;8244;50.044;9.006;2023-11-18T19:45:58;7.30;99.90
16273;DHT22;8244;50.044;9.006;2023-11-18T19:51:00;7.30;99.90
16273;DHT22;8244;50.044;9.006;2023-11-18T19:56:03;7.30;99.90
16273;DHT22;8244;50.044;9.006;2023-11-18T20:01:06;7.30;99.90
16273;DHT22;8244;50.044;9.006;2023-11-18T20:06:09;7.20;99.90
16273;DHT22;8244;50.044;9.006;2023-11-18T20:11:12;7.20;99.90
16273;DHT22;8244;50.044;9.006;2023-11-18T20:16:19;7.20;99.90
16273;DHT22;8244;50.044;9.006;2023-11-18T20:21:21;7.20;99.90
16273;DHT22;8244;50.044;9.006;2023-11-18T20:26:24;7.20;99.90
16273;DHT22;8244;50.044;9.006;2023-11-18T20:31:27;7.20;99.90
16273;DHT22;8244;50.044;9.006;2023-11-18T20:36:28;7.20;99.90
16273;DHT22;8244;50.044;9.006;2023-11-18T20:41:30;7.20;99.90
16273;DHT22;8244;50.044;9.006;2023-11-18T20:46:34;7.20;99.90
16273;DHT22;8244;50.044;9.006;2023-11-18T20:51:36;7.20;99.90
16273;DHT22;8244;50.044;9.006;2023-11-18T20:56:41;7.20;99.90
16273;DHT22;8244;50.044;9.006;2023-11-18T21:01:44;7.20;99.90
16273;DHT22;8244;50.044;9.006;2023-11-18T21:06:46;7.20;99.90
16273;DHT22;8244;50.044;9.006;2023-11-18T21:11:51;7.30;99.90
16273;DHT22;8244;50.044;9.006;2023-11-18T21:16:59;7.30;99.90
16273;DHT22;8244;50.044;9.006;2023-11-18T21:22:01;7.20;99.90
16273;DHT22;8244;50.044;9.006;2023-11-18T21:27:03;7.30;99.90
16273;DHT22;8244;50.044;9.006;2023-11-18T21:32:09;7.30;99.90
16273;DHT22;8244;50.044;9.006;2023-11-18T21:37:12;7.30;99.90
16273;DHT22;8244;50.044;9.006;2023-11-18T21:42:14;7.30;99.90
16273;DHT22;8244;50.044;9.006;2023-11-18T21:47:19;7.30;99.90
16273;DHT22;8244;50.044;9.006;2023-11-18T21:52:21;7.30;99.90
16273;DHT22;8244;50.044;9.006;2023-11-18T21:57:26;7.30;99.90
16273;DHT22;8244;50.044;9.006;2023-11-18T22:02:29;7.30;99.90
16273;DHT22;8244;50.044;9.006;2023-11-18T22:07:30;7.30;99.90
16273;DHT22;8244;50.044;9.006;2023-11-18T22:12:33;7.30;99.90
16273;DHT22;8244;50.044;9.006;2023-11-18T22:17:36;7.30;99.90
16273;DHT22;8244;50.044;9.006;2023-11-18T22:22:38;7.30;99.90
16273;DHT22;8244;50.044;9.006;2023-11-18T22:27:40;7.40;99.90
16273;DHT22;8244;50.044;9.006;2023-11-18T22:32:43;7.40;99.90
16273;DHT22;8244;50.044;9.006;2023-11-18T22:37:45;7.40;99.90
16273;DHT22;8244;50.044;9.006;2023-11-18T22:42:47;7.40;99.90
16273;DHT22;8244;50.044;9.006;2023-11-18T22:47:50;7.50;99.90
16273;DHT22;8244;50.044;9.006;2023-11-18T22:52:51;7.50;99.90
16273;DHT22;8244;50.044;9.006;2023-11-18T22:57:57;7.50;99.90
16273;DHT22;8244;50.044;9.006;2023-11-18T23:03:02;7.50;99.90
16273;DHT22;8244;50.044;9.006;2023-11-18T23:08:06;7.50;99.90
16273;DHT22;8244;50.044;9.006;2023-11-18T23:13:09;7.60;99.90
16273;DHT22;8244;50.044;9.006;2023-11-18T23:18:12;7.50;99.90
16273;DHT22;8244;50.044;9.006;2023-11-18T23:23:14;7.60;99.90
16273;DHT22;8244;50.044;9.006;2023-11-18T23:28:17;7.60;99.90
16273;DHT22;8244;50.044;9.006;2023-11-18T23:33:20;7.60;99.90
16273;DHT22;8244;50.044;9.006;2023-11-18T23:38:24;7.60;99.90
16273;DHT22;8244;50.044;9.006;2023-11-18T23:43:27;7.60;99.90
16273;DHT22;8244;50.044;9.006;2023-11-18T23:48:32;7.70;99.90
16273;DHT22;8244;50.044;9.006;2023-11-18T23:53:34;7.70;99.90
16273;DHT22;8244;50.044;9.006;2023-11-18T23:58:36;7.70;99.90
